createdAt,value
2023-11-14T00:00:58.695Z,96985.97
2023-11-14T00:02:02.303Z,96982.41
2023-11-14T00:03:05.759Z,96979.69
2023-11-14T00:04:08.938Z,96976.00
2023-11-14T00:05:11.000Z,96979.28
2023-11-14T00:06:15.464Z,96963.56
2023-11-14T00:07:17.457Z,96972.00
2023-11-14T00:08:20.452Z,96964.13
2023-11-14T00:09:22.536Z,96976.75
2023-11-14T00:10:24.865Z,96973.09
2023-11-14T00:11:29.896Z,96975.53
2023-11-14T00:12:32.025Z,96986.44
2023-11-14T00:13:35.471Z,96992.13
2023-11-14T00:14:37.847Z,96984.06
2023-11-14T00:15:40.957Z,96995.91
2023-11-14T00:16:43.031Z,96989.47
2023-11-14T00:17:46.234Z,97001.34
2023-11-14T00:18:48.384Z,96993.25
2023-11-14T00:19:51.438Z,96995.41
2023-11-14T00:20:56.036Z,96995.94
2023-11-14T00:22:00.452Z,96993.88
2023-11-14T00:23:02.532Z,96988.41
2023-11-14T00:24:06.250Z,96995.91
2023-11-14T00:25:09.367Z,97004.19
2023-11-14T00:26:11.929Z,97001.47
2023-11-14T00:27:18.922Z,96998.56
2023-11-14T00:28:20.953Z,96998.28
2023-11-14T00:29:23.962Z,96999.75
2023-11-14T00:30:25.921Z,97011.63
2023-11-14T00:31:28.219Z,97014.75
2023-11-14T00:32:31.278Z,97020.59
2023-11-14T00:33:34.827Z,97019.47
2023-11-14T00:34:38.757Z,97027.13
2023-11-14T00:35:41.047Z,97039.78
2023-11-14T00:36:44.031Z,97047.44
2023-11-14T00:37:47.456Z,97052.47
2023-11-14T00:38:50.408Z,97070.47
2023-11-14T00:39:52.389Z,97095.44
2023-11-14T00:40:55.548Z,97093.53
2023-11-14T00:41:57.720Z,97100.34
2023-11-14T00:43:00.885Z,97108.97
2023-11-14T00:44:03.193Z,97113.88
2023-11-14T00:45:06.794Z,97107.72
2023-11-14T00:46:11.977Z,97118.91
2023-11-14T00:47:15.056Z,97141.44
2023-11-14T00:48:17.116Z,97125.88
2023-11-14T00:49:20.961Z,97105.13
2023-11-14T00:50:24.436Z,97110.31
2023-11-14T00:51:27.589Z,97102.53
2023-11-14T00:52:29.561Z,97096.19
2023-11-14T00:53:33.957Z,97102.63
2023-11-14T00:54:36.082Z,97105.88
2023-11-14T00:55:39.102Z,97101.22
2023-11-14T00:56:41.298Z,97094.88
2023-11-14T00:57:44.651Z,97093.09
2023-11-14T00:58:46.709Z,97102.53
2023-11-14T00:59:49.845Z,97100.59
2023-11-14T01:00:51.961Z,97096.06
2023-11-14T01:01:56.140Z,97095.78
2023-11-14T01:03:02.220Z,97106.69
2023-11-14T01:04:05.969Z,97105.28
2023-11-14T01:05:09.694Z,97103.19
2023-11-14T01:06:13.436Z,97106.97
2023-11-14T01:07:15.424Z,97107.66
2023-11-14T01:08:18.402Z,97101.19
2023-11-14T01:09:23.029Z,97071.34
2023-11-14T01:10:26.069Z,97073.66
2023-11-14T01:11:28.297Z,97060.50
2023-11-14T01:12:31.416Z,97066.38
2023-11-14T01:13:33.481Z,97054.88
2023-11-14T01:14:36.564Z,97043.50
2023-11-14T01:15:39.081Z,97033.78
2023-11-14T01:16:42.166Z,97019.81
2023-11-14T01:17:45.111Z,97012.69
2023-11-14T01:18:48.198Z,96992.59
2023-11-14T01:19:51.649Z,96977.00
2023-11-14T01:20:54.738Z,96958.81
2023-11-14T01:21:56.821Z,96986.41
2023-11-14T01:22:59.990Z,96996.81
2023-11-14T01:24:02.118Z,96989.00
2023-11-14T01:25:08.426Z,96990.63
2023-11-14T01:26:10.504Z,96995.81
2023-11-14T01:27:13.535Z,96983.81
2023-11-14T01:28:15.642Z,96994.03
2023-11-14T01:29:18.628Z,96989.81
2023-11-14T01:30:20.571Z,96988.03
2023-11-14T01:31:24.004Z,96992.41
2023-11-14T01:32:27.445Z,96988.03
2023-11-14T01:33:30.501Z,96982.69
2023-11-14T01:34:32.640Z,96986.75
2023-11-14T01:35:35.615Z,96981.25
2023-11-14T01:36:39.145Z,96980.28
2023-11-14T01:37:43.480Z,96981.75
2023-11-14T01:38:45.977Z,96979.81
2023-11-14T01:39:48.951Z,96972.53
2023-11-14T01:40:52.821Z,96982.63
2023-11-14T01:41:55.851Z,96978.06
2023-11-14T01:43:01.484Z,96982.97
2023-11-14T01:44:04.887Z,96998.41
2023-11-14T01:45:07.912Z,96997.94
2023-11-14T01:46:11.376Z,97006.38
2023-11-14T01:47:13.573Z,97014.69
2023-11-14T01:48:17.378Z,97004.13
2023-11-14T01:49:20.259Z,97002.22
2023-11-14T01:50:23.806Z,97001.06
2023-11-14T01:51:26.653Z,97006.78
2023-11-14T01:52:28.910Z,97017.69
2023-11-14T01:53:32.166Z,97026.78
2023-11-14T01:54:35.125Z,97031.53
2023-11-14T01:55:38.515Z,97030.91
2023-11-14T01:56:42.652Z,97026.22
2023-11-14T01:57:47.398Z,97029.34
2023-11-14T01:58:51.141Z,97029.84
2023-11-14T01:59:54.740Z,97026.09
2023-11-14T02:00:57.171Z,97021.41
2023-11-14T02:02:00.688Z,97018.63
2023-11-14T02:03:02.962Z,97016.69
2023-11-14T02:04:11.390Z,97025.00
2023-11-14T02:05:13.461Z,97021.41
2023-11-14T02:06:16.618Z,97021.28
2023-11-14T02:07:20.612Z,97045.16
2023-11-14T02:08:27.212Z,97038.84
2023-11-14T02:09:29.234Z,97042.09
2023-11-14T02:10:32.367Z,97041.94
2023-11-14T02:11:34.593Z,97057.41
2023-11-14T02:12:39.130Z,97056.25
2023-11-14T02:13:44.743Z,97063.94
2023-11-14T02:14:47.807Z,97061.16
2023-11-14T02:15:49.926Z,97055.78
2023-11-14T02:16:56.236Z,97052.88
2023-11-14T02:17:58.608Z,97051.91
2023-11-14T02:19:01.698Z,97034.31
2023-11-14T02:20:04.412Z,97012.53
2023-11-14T02:21:07.859Z,97023.59
2023-11-14T02:22:09.949Z,97025.22
2023-11-14T02:23:13.803Z,97023.28
2023-11-14T02:24:17.128Z,97026.53
2023-11-14T02:25:21.503Z,97035.97
2023-11-14T02:26:23.535Z,97030.75
2023-11-14T02:27:26.682Z,97034.00
2023-11-14T02:28:28.791Z,97031.41
2023-11-14T02:29:32.088Z,97045.09
2023-11-14T02:30:34.241Z,97033.69
2023-11-14T02:31:36.428Z,97029.13
2023-11-14T02:32:40.680Z,97036.81
2023-11-14T02:33:42.750Z,97035.00
2023-11-14T02:34:45.724Z,97038.13
2023-11-14T02:35:48.091Z,97037.13
2023-11-14T02:36:51.108Z,97041.19
2023-11-14T02:37:57.712Z,97036.66
2023-11-14T02:38:59.775Z,97038.28
2023-11-14T02:40:04.543Z,97039.72
2023-11-14T02:41:08.320Z,97037.78
2023-11-14T02:42:12.833Z,97032.41
2023-11-14T02:44:56.160Z,97020.03
2023-11-14T02:45:58.212Z,97026.91
2023-11-14T02:47:01.345Z,97024.28
2023-11-14T02:48:05.432Z,97025.91
2023-11-14T02:49:24.222Z,97024.94
2023-11-14T02:50:49.923Z,97027.53
2023-11-14T02:51:53.081Z,97036.34
2023-11-14T02:52:55.970Z,97034.53
2023-11-14T02:53:58.963Z,97036.81
2023-11-14T02:55:00.941Z,97044.47
2023-11-14T02:56:05.778Z,97044.47
2023-11-14T02:57:10.840Z,97047.72
2023-11-14T02:58:14.124Z,97041.38
2023-11-14T02:59:16.434Z,97051.63
2023-11-14T03:00:19.658Z,97053.25
2023-11-14T03:01:21.796Z,97053.06
2023-11-14T03:02:25.785Z,97051.31
2023-11-14T03:03:27.869Z,97044.31
2023-11-14T03:04:30.960Z,97046.75
2023-11-14T03:05:33.037Z,97045.75
2023-11-14T03:06:40.400Z,97042.97
2023-11-14T03:07:42.403Z,97050.81
2023-11-14T03:08:45.408Z,97048.19
2023-11-14T03:09:47.366Z,97042.03
2023-11-14T03:10:50.477Z,97039.25
2023-11-14T03:11:52.536Z,97039.25
2023-11-14T03:12:56.913Z,97036.47
2023-11-14T03:13:59.075Z,97051.28
2023-11-14T03:15:02.128Z,97057.31
2023-11-14T03:16:04.939Z,97064.16
2023-11-14T03:17:08.266Z,97063.34
2023-11-14T03:18:10.338Z,97068.56
2023-11-14T03:19:13.375Z,97067.59
2023-11-14T03:20:20.839Z,97069.38
2023-11-14T03:21:31.599Z,97070.34
2023-11-14T03:22:33.603Z,97066.94
2023-11-14T03:23:36.615Z,97066.13
2023-11-14T03:24:39.328Z,97070.69
2023-11-14T03:25:42.370Z,97068.22
2023-11-14T03:26:44.369Z,97076.38
2023-11-14T03:27:47.651Z,97080.94
2023-11-14T03:28:51.016Z,97083.69
2023-11-14T03:29:54.070Z,97087.47
2023-11-14T03:30:56.052Z,97088.09
2023-11-14T03:31:59.165Z,97085.50
2023-11-14T03:33:04.161Z,97092.66
2023-11-14T03:34:07.284Z,97093.31
2023-11-14T03:35:10.836Z,97093.31
2023-11-14T03:36:13.871Z,97094.28
2023-11-14T03:37:15.862Z,97096.91
2023-11-14T03:38:18.924Z,97099.50
2023-11-14T03:39:21.063Z,97091.69
2023-11-14T03:40:24.419Z,97092.66
2023-11-14T03:41:26.371Z,97100.47
2023-11-14T03:42:29.355Z,97101.44
2023-11-14T03:43:31.381Z,97098.19
2023-11-14T03:44:35.829Z,97092.34
2023-11-14T03:45:37.900Z,97104.69
2023-11-14T03:46:41.268Z,97098.16
2023-11-14T03:47:43.709Z,97103.88
2023-11-14T03:48:46.851Z,97105.97
2023-11-14T03:49:48.828Z,97105.66
2023-11-14T03:50:52.150Z,97105.31
2023-11-14T03:51:54.133Z,97106.75
2023-11-14T03:52:57.150Z,97105.63
2023-11-14T03:54:00.511Z,97108.53
2023-11-14T03:55:03.699Z,97108.84
2023-11-14T03:56:09.932Z,97112.56
2023-11-14T03:57:13.659Z,97123.28
2023-11-14T03:58:15.723Z,97118.41
2023-11-14T03:59:18.767Z,97127.19
2023-11-14T04:00:22.195Z,97120.34
2023-11-14T04:01:25.251Z,97130.75
2023-11-14T04:02:28.017Z,97130.91
2023-11-14T04:03:31.683Z,97141.50
2023-11-14T04:04:34.333Z,97140.00
2023-11-14T04:05:37.892Z,97140.97
2023-11-14T04:06:40.875Z,97143.75
2023-11-14T04:07:43.384Z,97137.72
2023-11-14T04:08:46.367Z,97135.25
2023-11-14T04:09:48.583Z,97136.41
2023-11-14T04:10:51.630Z,97134.63
2023-11-14T04:11:53.713Z,97131.84
2023-11-14T04:12:57.054Z,97141.31
2023-11-14T04:13:59.983Z,97141.97
2023-11-14T04:15:03.106Z,97135.59
2023-11-14T04:16:10.239Z,97132.88
2023-11-14T04:17:14.764Z,97139.53
2023-11-14T04:18:17.043Z,97138.72
2023-11-14T04:19:20.214Z,97143.94
2023-11-14T04:20:22.365Z,97145.56
2023-11-14T04:21:25.322Z,97146.38
2023-11-14T04:22:27.292Z,97141.16
2023-11-14T04:23:29.282Z,97148.84
2023-11-14T04:24:33.737Z,97147.22
2023-11-14T04:25:36.073Z,97145.56
2023-11-14T04:26:38.315Z,97146.53
2023-11-14T04:27:42.117Z,97154.50
2023-11-14T04:28:44.876Z,97155.47
2023-11-14T04:29:47.913Z,97145.88
2023-11-14T04:30:49.871Z,97151.09
2023-11-14T04:31:53.302Z,97147.81
2023-11-14T04:32:56.644Z,97147.81
2023-11-14T04:33:58.657Z,97153.00
2023-11-14T04:35:01.641Z,97155.47
2023-11-14T04:36:04.461Z,97153.81
2023-11-14T04:37:10.448Z,97155.63
2023-11-14T04:38:12.732Z,97153.00
2023-11-14T04:39:16.193Z,97152.19
2023-11-14T04:40:18.321Z,97152.19
2023-11-14T04:41:21.725Z,97152.19
2023-11-14T04:42:23.757Z,97156.44
2023-11-14T04:43:26.842Z,97161.63
2023-11-14T04:44:28.808Z,97157.41
2023-11-14T04:45:31.787Z,97165.38
2023-11-14T04:46:34.647Z,97163.75
2023-11-14T04:47:39.159Z,97162.94
2023-11-14T04:48:41.239Z,97175.13
2023-11-14T04:49:45.802Z,97171.69
2023-11-14T04:50:47.850Z,97181.28
2023-11-14T04:51:50.839Z,97175.28
2023-11-14T04:52:52.831Z,97177.88
2023-11-14T04:53:55.811Z,97177.88
2023-11-14T04:54:58.014Z,97178.03
2023-11-14T04:56:00.964Z,97179.81
2023-11-14T04:57:03.024Z,97179.00
2023-11-14T04:58:05.119Z,97186.66
2023-11-14T04:59:08.125Z,97194.47
2023-11-14T05:00:10.730Z,97192.03
2023-11-14T05:01:13.850Z,97195.28
2023-11-14T05:02:15.911Z,97195.44
2023-11-14T05:03:20.351Z,97191.84
2023-11-14T05:04:22.502Z,97198.03
2023-11-14T05:05:25.557Z,97195.59
2023-11-14T05:06:27.532Z,97206.00
2023-11-14T05:07:31.296Z,97203.41
2023-11-14T05:08:33.416Z,97207.63
2023-11-14T05:09:36.790Z,97209.25
2023-11-14T05:10:38.996Z,97205.69
2023-11-14T05:11:42.046Z,97209.09
2023-11-14T05:12:44.017Z,97208.13
2023-11-14T05:13:47.008Z,97208.00
2023-11-14T05:14:49.177Z,97216.59
2023-11-14T05:15:52.149Z,97211.25
2023-11-14T05:16:57.321Z,97211.06
2023-11-14T05:18:00.698Z,97223.97
2023-11-14T05:19:04.141Z,97217.78
2023-11-14T05:20:08.358Z,97214.19
2023-11-14T05:21:10.372Z,97218.59
2023-11-14T05:22:13.595Z,97215.81
2023-11-14T05:23:16.951Z,97221.19
2023-11-14T05:24:18.993Z,97228.03
2023-11-14T05:25:21.961Z,97228.03
2023-11-14T05:26:24.161Z,97221.84
2023-11-14T05:27:27.208Z,97225.28
2023-11-14T05:28:29.336Z,97232.25
2023-11-14T05:29:35.192Z,97233.09
2023-11-14T05:30:38.842Z,97234.03
2023-11-14T05:31:41.792Z,97241.03
2023-11-14T05:32:43.830Z,97240.91
2023-11-14T05:33:47.193Z,97234.84
2023-11-14T05:34:50.529Z,97244.31
2023-11-14T05:35:53.587Z,97246.09
2023-11-14T05:36:55.535Z,97242.53
2023-11-14T05:37:58.698Z,97247.72
2023-11-14T05:39:00.896Z,97247.72
2023-11-14T05:40:04.307Z,97246.75
2023-11-14T05:41:06.545Z,97252.94
2023-11-14T05:42:09.565Z,97250.34
2023-11-14T05:43:11.528Z,97248.56
2023-11-14T05:44:16.203Z,97252.78
2023-11-14T05:45:18.239Z,97251.00
2023-11-14T05:46:21.353Z,97261.41
2023-11-14T05:47:23.369Z,97261.41
2023-11-14T05:48:25.462Z,97263.03
2023-11-14T05:49:29.295Z,97268.22
2023-11-14T05:50:32.801Z,97262.06
2023-11-14T05:51:35.895Z,97266.31
2023-11-14T05:52:37.871Z,97272.31
2023-11-14T05:53:43.909Z,97271.50
2023-11-14T05:54:46.232Z,97268.91
2023-11-14T05:55:49.178Z,97274.94
2023-11-14T05:56:51.153Z,97275.09
2023-11-14T05:57:54.109Z,97269.88
2023-11-14T05:58:56.115Z,97271.00
2023-11-14T05:59:59.080Z,97277.34
2023-11-14T06:01:02.583Z,97273.09
2023-11-14T06:02:07.648Z,97278.44
2023-11-14T06:03:09.751Z,97281.22
2023-11-14T06:04:12.871Z,97287.53
2023-11-14T06:05:14.940Z,97286.72
2023-11-14T06:06:19.307Z,97284.28
2023-11-14T06:07:21.554Z,97298.25
2023-11-14T06:08:24.565Z,97296.75
2023-11-14T06:09:26.602Z,97295.13
2023-11-14T06:10:29.775Z,97294.31
2023-11-14T06:11:31.756Z,97294.47
2023-11-14T06:12:34.978Z,97285.19
2023-11-14T06:13:37.096Z,97292.97
2023-11-14T06:14:40.077Z,97291.50
2023-11-14T06:15:42.066Z,97289.22
2023-11-14T06:16:45.298Z,97293.59
2023-11-14T06:17:47.424Z,97287.75
2023-11-14T06:18:50.398Z,97297.31
2023-11-14T06:19:52.428Z,97299.91
2023-11-14T06:20:55.377Z,97299.09
2023-11-14T06:21:58.725Z,97299.91
2023-11-14T06:23:02.458Z,97297.97
2023-11-14T06:24:04.977Z,97296.84
2023-11-14T06:25:09.033Z,97297.53
2023-11-14T06:26:11.213Z,97300.94
2023-11-14T06:27:14.383Z,97295.59
2023-11-14T06:28:16.387Z,97299.81
2023-11-14T06:29:18.738Z,97311.72
2023-11-14T06:30:23.163Z,97312.53
2023-11-14T06:31:25.423Z,97314.16
2023-11-14T06:32:30.128Z,97319.22
2023-11-14T06:33:33.797Z,97321.81
2023-11-14T06:34:37.145Z,97327.00
2023-11-14T06:35:39.834Z,97329.63
2023-11-14T06:36:42.798Z,97328.66
2023-11-14T06:37:46.142Z,97334.69
2023-11-14T06:38:49.285Z,97338.75
2023-11-14T06:39:51.939Z,97335.19
2023-11-14T06:40:55.304Z,97342.84
2023-11-14T06:41:57.387Z,97344.16
2023-11-14T06:43:00.364Z,97350.06
2023-11-14T06:44:02.401Z,97346.19
2023-11-14T06:45:07.021Z,97349.28
2023-11-14T06:46:09.629Z,97345.56
2023-11-14T06:47:13.524Z,97350.44
2023-11-14T06:48:15.679Z,97356.19
2023-11-14T06:49:18.722Z,97345.59
2023-11-14T06:50:29.975Z,97346.28
2023-11-14T06:51:40.989Z,97356.53
2023-11-14T06:52:42.997Z,97353.78
2023-11-14T06:53:50.072Z,97354.47
2023-11-14T06:54:52.082Z,97351.84
2023-11-14T06:55:55.108Z,97354.28
2023-11-14T06:56:57.126Z,97344.53
2023-11-14T06:58:00.446Z,97355.47
2023-11-14T06:59:02.955Z,97346.69
2023-11-14T07:00:08.442Z,97361.84
2023-11-14T07:01:13.210Z,97359.09
2023-11-14T07:02:16.719Z,97360.75
2023-11-14T07:03:18.761Z,97360.41
2023-11-14T07:04:22.058Z,97361.91
2023-11-14T07:05:24.148Z,97358.97
2023-11-14T07:06:29.905Z,97369.09
2023-11-14T07:07:31.908Z,97374.00
2023-11-14T07:08:34.873Z,97367.66
2023-11-14T07:09:38.246Z,97364.75
2023-11-14T07:10:41.723Z,97367.03
2023-11-14T07:11:45.743Z,97364.94
2023-11-14T07:12:48.709Z,97376.00
2023-11-14T07:13:50.876Z,97374.09
2023-11-14T07:14:53.894Z,97370.34
2023-11-14T07:15:55.973Z,97371.84
2023-11-14T07:16:59.248Z,97370.69
2023-11-14T07:18:02.921Z,97383.41
2023-11-14T07:19:06.211Z,97372.03
2023-11-14T07:20:11.901Z,97376.94
2023-11-14T07:21:17.040Z,97377.75
2023-11-14T07:22:19.034Z,97367.16
2023-11-14T07:23:22.125Z,97370.41
2023-11-14T07:24:24.454Z,97363.41
2023-11-14T07:25:29.523Z,97371.91
2023-11-14T07:26:31.568Z,97373.53
2023-11-14T07:27:34.511Z,97375.97
2023-11-14T07:28:36.467Z,97370.63
2023-11-14T07:29:39.471Z,97376.47
2023-11-14T07:30:43.203Z,97367.69
2023-11-14T07:31:46.792Z,97367.53
2023-11-14T07:32:48.829Z,97365.75
2023-11-14T07:33:51.775Z,97356.13
2023-11-14T07:34:54.224Z,97355.97
2023-11-14T07:35:57.918Z,97361.81
2023-11-14T07:37:00.339Z,97355.66
2023-11-14T07:38:03.366Z,97356.31
2023-11-14T07:39:06.662Z,97358.75
2023-11-14T07:40:11.945Z,97362.84
2023-11-14T07:41:15.611Z,97360.06
2023-11-14T07:42:19.361Z,97353.88
2023-11-14T07:43:25.440Z,97359.75
2023-11-14T07:44:28.874Z,97356.00
2023-11-14T07:45:31.143Z,97360.25
2023-11-14T07:46:34.768Z,97363.53
2023-11-14T07:47:37.089Z,97372.97
2023-11-14T07:48:40.429Z,97374.44
2023-11-14T07:49:42.794Z,97378.69
2023-11-14T07:50:46.063Z,97376.72
2023-11-14T07:51:49.244Z,97380.66
2023-11-14T07:52:52.666Z,97379.50
2023-11-14T07:53:56.882Z,97387.19
2023-11-14T07:55:04.038Z,97379.22
2023-11-14T07:56:07.091Z,97380.66
2023-11-14T07:57:11.678Z,97378.75
2023-11-14T07:58:14.102Z,97381.38
2023-11-14T07:59:17.535Z,97380.38
2023-11-14T08:00:22.344Z,97381.38
2023-11-14T08:01:25.623Z,97390.81
2023-11-14T08:02:27.901Z,97384.63
2023-11-14T08:03:31.372Z,97388.03
2023-11-14T08:04:34.305Z,97387.91
2023-11-14T08:05:41.526Z,97382.69
2023-11-14T08:06:43.702Z,97377.47
2023-11-14T08:07:47.093Z,97380.91
2023-11-14T08:08:50.535Z,97380.91
2023-11-14T08:09:53.893Z,97384.97
2023-11-14T08:10:56.099Z,97394.41
2023-11-14T08:11:59.494Z,97386.44
2023-11-14T08:13:02.897Z,97395.91
2023-11-14T08:14:05.445Z,97398.50
2023-11-14T08:15:09.092Z,97388.06
2023-11-14T08:16:11.066Z,97397.53
2023-11-14T08:17:14.218Z,97391.34
2023-11-14T08:18:16.941Z,97386.94
2023-11-14T08:19:20.098Z,97383.50
2023-11-14T08:20:22.160Z,97380.91
2023-11-14T08:21:25.860Z,97383.38
2023-11-14T08:22:27.862Z,97387.59
2023-11-14T08:23:30.863Z,97390.84
2023-11-14T08:24:32.870Z,97387.94
2023-11-14T08:25:36.010Z,97387.75
2023-11-14T08:26:38.066Z,97392.66
2023-11-14T08:27:41.549Z,97381.88
2023-11-14T08:28:44.916Z,97384.19
2023-11-14T08:29:48.655Z,97391.53
2023-11-14T08:30:50.772Z,97375.53
2023-11-14T08:31:54.983Z,97370.81
2023-11-14T08:32:57.456Z,97376.69
2023-11-14T08:33:59.515Z,97378.97
2023-11-14T08:35:04.899Z,97376.03
2023-11-14T08:36:08.398Z,97379.94
2023-11-14T08:37:11.448Z,97374.41
2023-11-14T08:38:17.531Z,97377.50
2023-11-14T08:39:24.841Z,97377.03
2023-11-14T08:40:30.144Z,97380.09
2023-11-14T08:41:32.226Z,97374.22
2023-11-14T08:42:35.590Z,97378.13
2023-11-14T08:43:38.333Z,97381.41
2023-11-14T08:44:42.630Z,97381.41
2023-11-14T08:45:44.965Z,97378.94
2023-11-14T08:46:48.815Z,97374.53
2023-11-14T08:47:50.989Z,97384.97
2023-11-14T08:48:54.018Z,97376.19
2023-11-14T08:49:56.565Z,97380.25
2023-11-14T08:50:59.573Z,97382.53
2023-11-14T08:52:01.681Z,97379.59
2023-11-14T08:53:04.875Z,97369.81
2023-11-14T08:54:07.663Z,97376.47
2023-11-14T08:55:10.661Z,97373.53
2023-11-14T08:56:12.758Z,97371.56
2023-11-14T08:57:17.203Z,97375.81
2023-11-14T08:58:19.252Z,97369.78
2023-11-14T08:59:22.999Z,97374.84
2023-11-14T09:00:27.756Z,97374.69
2023-11-14T09:01:30.900Z,97380.72
2023-11-14T09:02:33.323Z,97381.69
2023-11-14T09:03:36.419Z,97391.47
2023-11-14T09:04:38.504Z,97387.25
2023-11-14T09:05:40.479Z,97395.91
2023-11-14T09:06:43.516Z,97392.47
2023-11-14T09:07:45.625Z,97390.53
2023-11-14T09:08:48.582Z,97396.41
2023-11-14T09:09:50.835Z,97403.25
2023-11-14T09:10:53.124Z,97404.72
2023-11-14T09:11:56.108Z,97407.00
2023-11-14T09:12:58.522Z,97415.16
2023-11-14T09:14:03.250Z,97399.47
2023-11-14T09:15:06.451Z,97393.38
2023-11-14T09:16:10.452Z,97397.94
2023-11-14T09:17:14.160Z,97403.47
2023-11-14T09:18:16.601Z,97404.63
2023-11-14T09:19:19.733Z,97408.84
2023-11-14T09:20:21.847Z,97415.22
2023-11-14T09:21:23.973Z,97414.75
2023-11-14T09:22:30.213Z,97418.66
2023-11-14T09:23:33.396Z,97413.06
2023-11-14T09:24:36.399Z,97411.09
2023-11-14T09:25:38.400Z,97419.59
2023-11-14T09:26:41.531Z,97418.59
2023-11-14T09:27:46.186Z,97420.41
2023-11-14T09:28:49.384Z,97418.94
2023-11-14T09:29:52.173Z,97425.34
2023-11-14T09:30:55.599Z,97424.69
2023-11-14T09:32:05.169Z,97422.22
2023-11-14T09:33:08.922Z,97423.22
2023-11-14T09:34:11.037Z,97420.59
2023-11-14T09:35:16.088Z,97423.72
2023-11-14T09:36:18.739Z,97424.16
2023-11-14T09:37:21.670Z,97423.34
2023-11-14T09:38:23.841Z,97416.31
2023-11-14T09:39:27.669Z,97416.31
2023-11-14T09:40:29.812Z,97425.16
2023-11-14T09:41:34.068Z,97426.78
2023-11-14T09:42:36.283Z,97428.44
2023-11-14T09:43:40.452Z,97417.97
2023-11-14T09:44:42.549Z,97416.50
2023-11-14T09:45:46.274Z,97415.84
2023-11-14T09:46:50.067Z,97423.72
2023-11-14T09:47:55.918Z,97424.69
2023-11-14T09:48:59.101Z,97420.91
2023-11-14T09:50:01.144Z,97416.31
2023-11-14T09:51:05.720Z,97407.50
2023-11-14T09:52:08.158Z,97405.53
2023-11-14T09:53:11.952Z,97408.78
2023-11-14T09:54:16.802Z,97404.84
2023-11-14T09:55:20.115Z,97408.75
2023-11-14T09:56:22.431Z,97412.00
2023-11-14T09:57:25.553Z,97407.44
2023-11-14T09:58:27.598Z,97410.03
2023-11-14T09:59:31.500Z,97412.66
2023-11-14T10:00:34.521Z,97412.47
2023-11-14T10:01:37.595Z,97418.38
2023-11-14T10:02:40.570Z,97419.19
2023-11-14T10:03:45.219Z,97415.59
2023-11-14T10:04:47.348Z,97414.59
2023-11-14T10:05:50.438Z,97425.88
2023-11-14T10:06:52.514Z,97418.00
2023-11-14T10:07:57.093Z,97428.47
2023-11-14T10:09:01.912Z,97419.81
2023-11-14T10:10:07.037Z,97422.44
2023-11-14T10:11:10.883Z,97427.03
2023-11-14T10:12:21.308Z,97425.06
2023-11-14T10:13:27.473Z,97410.66
2023-11-14T10:14:44.149Z,97417.00
2023-11-14T10:15:46.154Z,97410.94
2023-11-14T10:16:58.902Z,97410.59
2023-11-14T10:18:04.099Z,97405.34
2023-11-14T10:19:14.038Z,97404.38
2023-11-14T10:20:18.115Z,97408.97
2023-11-14T10:21:34.885Z,97401.09
2023-11-14T10:22:45.999Z,97407.00
2023-11-14T10:23:48.992Z,97409.63
2023-11-14T10:24:51.089Z,97405.00
2023-11-14T10:25:54.110Z,97404.22
2023-11-14T10:26:56.218Z,97406.00
2023-11-14T10:28:01.086Z,97392.13
2023-11-14T10:29:04.248Z,97390.31
2023-11-14T10:30:08.706Z,97402.09
2023-11-14T10:31:16.133Z,97404.09
2023-11-14T10:32:20.815Z,97400.47
2023-11-14T10:33:30.729Z,97392.44
2023-11-14T10:34:35.667Z,97389.94
2023-11-14T10:35:37.871Z,97373.91
2023-11-14T10:36:47.332Z,97382.22
2023-11-14T10:37:50.633Z,97387.59
2023-11-14T10:39:01.897Z,97392.41
2023-11-14T10:40:07.539Z,97387.94
2023-11-14T10:41:11.230Z,97391.75
2023-11-14T10:42:13.749Z,97394.78
2023-11-14T10:43:16.847Z,97381.59
2023-11-14T10:44:19.254Z,97385.31
2023-11-14T10:45:21.421Z,97368.78
2023-11-14T10:46:27.605Z,97380.63
2023-11-14T10:47:39.756Z,97391.47
2023-11-14T10:48:42.907Z,97397.56
2023-11-14T10:49:47.035Z,97394.16
2023-11-14T10:50:50.944Z,97395.63
2023-11-14T10:51:53.819Z,97394.25
2023-11-14T10:52:57.296Z,97400.47
2023-11-14T10:54:00.371Z,97396.41
2023-11-14T10:55:03.827Z,97400.84
2023-11-14T10:56:08.190Z,97409.88
2023-11-14T10:57:21.594Z,97417.09
2023-11-14T10:58:26.403Z,97409.56
2023-11-14T10:59:31.820Z,97407.66
2023-11-14T11:00:35.504Z,97400.16
2023-11-14T11:01:38.748Z,97400.81
2023-11-14T11:02:41.639Z,97387.03
2023-11-14T11:03:45.090Z,97393.28
2023-11-14T11:04:48.703Z,97411.44
2023-11-14T11:05:51.782Z,97408.66
2023-11-14T11:06:53.898Z,97409.28
2023-11-14T11:07:57.903Z,97416.97
2023-11-14T11:09:01.072Z,97413.53
2023-11-14T11:10:05.364Z,97410.28
2023-11-14T11:11:08.251Z,97403.22
2023-11-14T11:12:11.584Z,97406.66
2023-11-14T11:13:15.652Z,97411.91
2023-11-14T11:14:20.149Z,97401.59
2023-11-14T11:15:22.203Z,97407.38
2023-11-14T11:16:45.059Z,97408.22
2023-11-14T11:17:48.029Z,97402.88
2023-11-14T11:18:51.057Z,97400.34
2023-11-14T11:19:54.470Z,97390.00
2023-11-14T11:21:09.571Z,97400.38
2023-11-14T11:22:14.554Z,97399.91
2023-11-14T11:23:17.668Z,97391.41
2023-11-14T11:24:29.510Z,97398.78
2023-11-14T11:25:39.798Z,97390.34
2023-11-14T11:27:16.576Z,97389.03
2023-11-14T11:28:35.513Z,97393.84
2023-11-14T11:29:55.980Z,97388.13
2023-11-14T11:31:08.673Z,97392.53
2023-11-14T11:32:27.793Z,97409.22
2023-11-14T11:33:34.269Z,97405.81
2023-11-14T11:34:36.291Z,97404.16
2023-11-14T11:35:40.878Z,97405.63
2023-11-14T11:36:42.903Z,97397.94
2023-11-14T11:37:45.281Z,97406.13
2023-11-14T11:38:54.094Z,97406.47
2023-11-14T11:40:07.116Z,97412.06
2023-11-14T11:41:14.597Z,97415.47
2023-11-14T11:42:18.712Z,97412.88
2023-11-14T11:43:21.741Z,97402.22
2023-11-14T11:44:36.362Z,97407.44
2023-11-14T11:45:41.157Z,97418.59
2023-11-14T11:46:44.946Z,97413.16
2023-11-14T11:47:48.067Z,97394.53
2023-11-14T11:48:50.170Z,97400.56
2023-11-14T11:49:53.159Z,97395.34
2023-11-14T11:50:57.452Z,97396.16
2023-11-14T11:52:14.891Z,97399.09
2023-11-14T11:53:17.419Z,97403.84
2023-11-14T11:54:35.620Z,97407.00
2023-11-14T11:55:38.033Z,97399.31
2023-11-14T11:56:41.804Z,97402.09
2023-11-14T11:57:44.708Z,97407.50
2023-11-14T11:58:48.443Z,97399.00
2023-11-14T12:00:23.645Z,97386.09
2023-11-14T12:01:26.918Z,97376.44
2023-11-14T12:02:30.802Z,97375.44
2023-11-14T12:03:33.700Z,97375.13
2023-11-14T12:04:37.080Z,97378.22
2023-11-14T12:05:39.308Z,97374.75
2023-11-14T12:06:45.506Z,97381.16
2023-11-14T12:07:48.075Z,97379.63
2023-11-14T12:08:52.858Z,97388.59
2023-11-14T12:09:54.913Z,97392.97
2023-11-14T12:10:58.597Z,97390.75
2023-11-14T12:12:01.347Z,97395.78
2023-11-14T12:13:05.895Z,97382.16
2023-11-14T12:14:10.712Z,97381.34
2023-11-14T12:15:17.377Z,97385.78
2023-11-14T12:16:21.963Z,97386.59
2023-11-14T12:17:25.355Z,97389.38
2023-11-14T12:18:28.351Z,97387.28
2023-11-14T12:19:30.703Z,97383.56
2023-11-14T12:20:34.204Z,97373.78
2023-11-14T12:21:36.993Z,97385.78
2023-11-14T12:22:40.621Z,97377.78
2023-11-14T12:23:43.798Z,97372.09
2023-11-14T12:24:45.847Z,97374.03
2023-11-14T12:25:49.156Z,97381.09
2023-11-14T12:26:51.399Z,97381.88
2023-11-14T12:28:03.603Z,97382.56
2023-11-14T12:29:07.931Z,97376.97
2023-11-14T12:30:11.114Z,97349.78
2023-11-14T12:31:27.467Z,97369.25